RDHK01 KNDZ-KNDZ
Flight info
| Callsign | RDHK01 |
|---|---|
| Flight time | 1h 45m |
| Altitude | 1000 |
| Route | VFR OPR |
| Aircraft | H60/M-VGDW/C |
Departure
| Time | 2026-04-13 23:36 |
|---|---|
| Airport | Whiting Field Naval Air Station South Airport (KNDZ) |
Arrival
| Time | 2026-04-14 01:22 |
|---|---|
| Airport | Whiting Field Naval Air Station South Airport (KNDZ) |
| Time | Latitude | Longitude | Altitude | Speed | Heading |
|---|---|---|---|---|---|
| 2026-04-13 23:20 | 30.70019 | -87.01668 | 175 ft | 0 kts | 0° |
| 2026-04-13 23:30 | 30.70020 | -87.01667 | 175 ft | 2 kts | 336° |
| 2026-04-13 23:30 | 30.70026 | -87.01695 | 175 ft | 4 kts | 265° |
| 2026-04-13 23:30 | 30.70025 | -87.01705 | 175 ft | 0 kts | 267° |
| 2026-04-13 23:34 | 30.70022 | -87.01705 | 180 ft | 2 kts | 275° |
| 2026-04-13 23:34 | 30.70020 | -87.01709 | 190 ft | 5 kts | 276° |
| 2026-04-13 23:34 | 30.70027 | -87.01778 | 192 ft | 6 kts | 273° |
| 2026-04-13 23:34 | 30.70035 | -87.01917 | 190 ft | 24 kts | 251° |
| 2026-04-13 23:35 | 30.69955 | -87.01923 | 208 ft | 40 kts | 155° |
| 2026-04-13 23:35 | 30.69663 | -87.01623 | 260 ft | 74 kts | 146° |
| 2026-04-13 23:35 | 30.69198 | -87.01005 | 322 ft | 121 kts | 134° |
| 2026-04-13 23:35 | 30.68592 | -87.00172 | 436 ft | 142 kts | 133° |
| 2026-04-13 23:36 | 30.67934 | -86.99337 | 704 ft | 127 kts | 139° |
| 2026-04-13 23:36 | 30.67294 | -86.99016 | 809 ft | 87 kts | 174° |
| 2026-04-13 23:36 | 30.66724 | -86.99116 | 879 ft | 80 kts | 199° |
| 2026-04-13 23:36 | 30.66243 | -86.99530 | 811 ft | 94 kts | 219° |
| 2026-04-13 23:37 | 30.65748 | -87.00123 | 818 ft | 110 kts | 217° |
| 2026-04-13 23:37 | 30.65213 | -87.00713 | 816 ft | 109 kts | 227° |
| 2026-04-13 23:37 | 30.64690 | -87.01514 | 679 ft | 136 kts | 232° |
| 2026-04-13 23:37 | 30.64115 | -87.02381 | 653 ft | 128 kts | 225° |
| 2026-04-13 23:38 | 30.63554 | -87.03192 | 684 ft | 135 kts | 228° |
| 2026-04-13 23:38 | 30.62917 | -87.03933 | 685 ft | 129 kts | 220° |
| 2026-04-13 23:38 | 30.62227 | -87.04652 | 690 ft | 133 kts | 221° |
| 2026-04-13 23:38 | 30.61473 | -87.05243 | 693 ft | 125 kts | 209° |
| 2026-04-13 23:39 | 30.60690 | -87.05689 | 674 ft | 128 kts | 204° |
| 2026-04-13 23:39 | 30.59927 | -87.05748 | 677 ft | 104 kts | 168° |
| 2026-04-13 23:39 | 30.59196 | -87.05607 | 681 ft | 131 kts | 188° |
| 2026-04-13 23:39 | 30.58250 | -87.05575 | 682 ft | 138 kts | 175° |
| 2026-04-13 23:40 | 30.57376 | -87.05449 | 705 ft | 117 kts | 174° |
| 2026-04-13 23:40 | 30.56544 | -87.05336 | 709 ft | 123 kts | 175° |
| 2026-04-13 23:40 | 30.55681 | -87.05245 | 741 ft | 124 kts | 175° |
| 2026-04-13 23:40 | 30.54813 | -87.05146 | 706 ft | 127 kts | 175° |
| 2026-04-13 23:41 | 30.53913 | -87.05044 | 689 ft | 126 kts | 176° |
| 2026-04-13 23:41 | 30.53086 | -87.04947 | 703 ft | 122 kts | 176° |
| 2026-04-13 23:41 | 30.52215 | -87.04865 | 716 ft | 129 kts | 177° |
| 2026-04-13 23:41 | 30.51320 | -87.04768 | 723 ft | 128 kts | 175° |
| 2026-04-13 23:42 | 30.50414 | -87.04666 | 695 ft | 132 kts | 174° |
| 2026-04-13 23:42 | 30.49563 | -87.04508 | 709 ft | 130 kts | 174° |
| 2026-04-13 23:42 | 30.48637 | -87.04404 | 699 ft | 129 kts | 176° |
| 2026-04-13 23:42 | 30.47794 | -87.04292 | 724 ft | 123 kts | 175° |
| 2026-04-13 23:43 | 30.46914 | -87.04190 | 694 ft | 128 kts | 175° |
| 2026-04-13 23:43 | 30.46026 | -87.04092 | 723 ft | 124 kts | 173° |
| 2026-04-13 23:43 | 30.45154 | -87.03959 | 720 ft | 130 kts | 174° |
| 2026-04-13 23:43 | 30.44274 | -87.03854 | 701 ft | 125 kts | 173° |
| 2026-04-13 23:44 | 30.43410 | -87.03841 | 663 ft | 136 kts | 187° |
| 2026-04-13 23:44 | 30.42504 | -87.04396 | 678 ft | 159 kts | 219° |
| 2026-04-13 23:44 | 30.41788 | -87.05327 | 727 ft | 133 kts | 227° |
| 2026-04-13 23:44 | 30.41183 | -87.06090 | 727 ft | 131 kts | 224° |
| 2026-04-13 23:45 | 30.40550 | -87.06883 | 700 ft | 136 kts | 224° |
| 2026-04-13 23:45 | 30.39909 | -87.07669 | 691 ft | 136 kts | 225° |
| 2026-04-13 23:45 | 30.39282 | -87.08440 | 689 ft | 138 kts | 226° |
| 2026-04-13 23:45 | 30.38639 | -87.09253 | 703 ft | 137 kts | 224° |
| 2026-04-13 23:46 | 30.38004 | -87.10000 | 715 ft | 132 kts | 224° |
| 2026-04-13 23:46 | 30.37389 | -87.10801 | 677 ft | 127 kts | 224° |
| 2026-04-13 23:46 | 30.36764 | -87.11587 | 679 ft | 134 kts | 224° |
| 2026-04-13 23:46 | 30.36128 | -87.12403 | 687 ft | 138 kts | 226° |
| 2026-04-13 23:47 | 30.35482 | -87.13212 | 694 ft | 134 kts | 224° |
| 2026-04-13 23:47 | 30.34862 | -87.14026 | 693 ft | 138 kts | 225° |
| 2026-04-13 23:47 | 30.34235 | -87.14823 | 692 ft | 135 kts | 226° |
| 2026-04-13 23:47 | 30.33583 | -87.15629 | 697 ft | 136 kts | 224° |
| 2026-04-13 23:48 | 30.33144 | -87.16169 | 683 ft | 138 kts | 224° |
| 2026-04-13 23:48 | 30.32509 | -87.16952 | 691 ft | 136 kts | 224° |
| 2026-04-13 23:48 | 30.31860 | -87.17738 | 683 ft | 134 kts | 225° |
| 2026-04-13 23:48 | 30.31190 | -87.18443 | 688 ft | 127 kts | 210° |
| 2026-04-13 23:49 | 30.30454 | -87.18985 | 672 ft | 128 kts | 211° |
| 2026-04-13 23:49 | 30.29693 | -87.19527 | 789 ft | 127 kts | 208° |
| 2026-04-13 23:49 | 30.28921 | -87.20096 | 700 ft | 140 kts | 212° |
| 2026-04-13 23:49 | 30.28109 | -87.20712 | 683 ft | 133 kts | 211° |
| 2026-04-13 23:50 | 30.27314 | -87.21304 | 700 ft | 134 kts | 210° |
| 2026-04-13 23:50 | 30.26542 | -87.21891 | 683 ft | 130 kts | 211° |
| 2026-04-13 23:50 | 30.25772 | -87.22472 | 658 ft | 134 kts | 210° |
| 2026-04-13 23:50 | 30.24989 | -87.23007 | 683 ft | 130 kts | 207° |
| 2026-04-13 23:51 | 30.24250 | -87.23622 | 655 ft | 133 kts | 229° |
| 2026-04-13 23:51 | 30.23948 | -87.24620 | 677 ft | 132 kts | 264° |
| 2026-04-13 23:51 | 30.23834 | -87.25710 | 707 ft | 143 kts | 257° |
| 2026-04-13 23:51 | 30.23641 | -87.26851 | 722 ft | 144 kts | 266° |
| 2026-04-13 23:52 | 30.23543 | -87.28015 | 640 ft | 138 kts | 259° |
| 2026-04-13 23:52 | 30.23394 | -87.29085 | 679 ft | 139 kts | 259° |
| 2026-04-13 23:52 | 30.23247 | -87.30214 | 698 ft | 145 kts | 259° |
| 2026-04-13 23:52 | 30.23096 | -87.31362 | 696 ft | 138 kts | 258° |
| 2026-04-13 23:53 | 30.22962 | -87.32450 | 681 ft | 137 kts | 260° |
| 2026-04-13 23:53 | 30.22813 | -87.33532 | 573 ft | 124 kts | 258° |
| 2026-04-13 23:53 | 30.22672 | -87.34281 | 412 ft | 65 kts | 242° |
| 2026-04-13 23:53 | 30.22579 | -87.34654 | 240 ft | 45 kts | 228° |
| 2026-04-13 23:54 | 30.22460 | -87.34973 | 163 ft | 47 kts | 300° |
| 2026-04-13 23:54 | 30.22532 | -87.35431 | 131 ft | 66 kts | 243° |
| 2026-04-13 23:54 | 30.22428 | -87.35881 | 101 ft | 51 kts | 251° |
| 2026-04-13 23:54 | 30.22392 | -87.36209 | 53 ft | 40 kts | 266° |
| 2026-04-13 23:55 | 30.22407 | -87.36622 | 218 ft | 53 kts | 277° |
| 2026-04-13 23:55 | 30.22465 | -87.36902 | 132 ft | 20 kts | 272° |
| 2026-04-13 23:55 | 30.22461 | -87.37178 | 118 ft | 54 kts | 268° |
| 2026-04-13 23:55 | 30.22446 | -87.37732 | 205 ft | 87 kts | 265° |
| 2026-04-13 23:56 | 30.22193 | -87.38591 | 200 ft | 131 kts | 244° |
| 2026-04-13 23:56 | 30.21846 | -87.39536 | 219 ft | 121 kts | 239° |
| 2026-04-13 23:56 | 30.21501 | -87.40414 | 221 ft | 118 kts | 244° |
| 2026-04-13 23:56 | 30.21134 | -87.41294 | 191 ft | 123 kts | 241° |
| 2026-04-13 23:57 | 30.20718 | -87.42177 | 175 ft | 123 kts | 243° |
| 2026-04-13 23:57 | 30.20496 | -87.43087 | 183 ft | 118 kts | 248° |
| 2026-04-13 23:57 | 30.20158 | -87.43982 | 200 ft | 120 kts | 244° |
| 2026-04-13 23:57 | 30.19816 | -87.44870 | 170 ft | 121 kts | 244° |
| 2026-04-13 23:58 | 30.19475 | -87.45756 | 197 ft | 121 kts | 244° |
| 2026-04-13 23:58 | 30.19131 | -87.46643 | 186 ft | 121 kts | 244° |
| 2026-04-13 23:58 | 30.18781 | -87.47523 | 196 ft | 121 kts | 243° |
| 2026-04-13 23:58 | 30.18432 | -87.48407 | 198 ft | 120 kts | 244° |
| 2026-04-13 23:59 | 30.18083 | -87.49294 | 196 ft | 122 kts | 244° |
| 2026-04-13 23:59 | 30.17741 | -87.50173 | 201 ft | 120 kts | 244° |
| 2026-04-13 23:59 | 30.17391 | -87.51062 | 200 ft | 121 kts | 244° |
| 2026-04-13 23:59 | 30.17046 | -87.51962 | 197 ft | 120 kts | 244° |
| 2026-04-14 00:00 | 30.16699 | -87.52865 | 181 ft | 119 kts | 244° |
| 2026-04-14 00:00 | 30.16351 | -87.53743 | 199 ft | 122 kts | 244° |
| 2026-04-14 00:00 | 30.16002 | -87.54640 | 203 ft | 120 kts | 244° |
| 2026-04-14 00:00 | 30.15653 | -87.55528 | 207 ft | 123 kts | 244° |
| 2026-04-14 00:01 | 30.15316 | -87.56429 | 194 ft | 124 kts | 244° |
| 2026-04-14 00:01 | 30.14984 | -87.57330 | 192 ft | 121 kts | 244° |
| 2026-04-14 00:01 | 30.14715 | -87.58048 | 179 ft | 122 kts | 244° |
| 2026-04-14 00:01 | 30.14375 | -87.58922 | 197 ft | 120 kts | 244° |
| 2026-04-14 00:02 | 30.14030 | -87.59803 | 192 ft | 118 kts | 244° |
| 2026-04-14 00:02 | 30.13677 | -87.60670 | 187 ft | 119 kts | 244° |
| 2026-04-14 00:02 | 30.13327 | -87.61552 | 182 ft | 122 kts | 244° |
| 2026-04-14 00:02 | 30.12983 | -87.62441 | 186 ft | 121 kts | 244° |
| 2026-04-14 00:03 | 30.12634 | -87.63322 | 194 ft | 120 kts | 244° |
| 2026-04-14 00:03 | 30.12292 | -87.64204 | 184 ft | 120 kts | 246° |
| 2026-04-14 00:03 | 30.12014 | -87.65119 | 194 ft | 121 kts | 248° |
| 2026-04-14 00:03 | 30.11732 | -87.66031 | 184 ft | 121 kts | 248° |
| 2026-04-14 00:04 | 30.11436 | -87.66937 | 188 ft | 120 kts | 248° |
| 2026-04-14 00:04 | 30.11140 | -87.67840 | 194 ft | 120 kts | 248° |
| 2026-04-14 00:04 | 30.10856 | -87.68765 | 187 ft | 122 kts | 248° |
| 2026-04-14 00:04 | 30.10574 | -87.69690 | 192 ft | 122 kts | 248° |
| 2026-04-14 00:05 | 30.10327 | -87.70467 | 192 ft | 122 kts | 248° |
| 2026-04-14 00:05 | 30.10032 | -87.71394 | 184 ft | 121 kts | 248° |
| 2026-04-14 00:05 | 30.09747 | -87.72321 | 188 ft | 120 kts | 248° |
| 2026-04-14 00:05 | 30.09658 | -87.73206 | 210 ft | 106 kts | 300° |
| 2026-04-14 00:06 | 30.09911 | -87.74012 | 225 ft | 109 kts | 294° |
| 2026-04-14 00:06 | 30.10271 | -87.74771 | 241 ft | 107 kts | 300° |
| 2026-04-14 00:06 | 30.10622 | -87.75498 | 315 ft | 100 kts | 301° |
| 2026-04-14 00:06 | 30.11198 | -87.75807 | 193 ft | 86 kts | 333° |
| 2026-04-14 00:07 | 30.11440 | -87.76380 | 226 ft | 93 kts | 298° |
| 2026-04-14 00:07 | 30.11773 | -87.77121 | 253 ft | 115 kts | 298° |
| 2026-04-14 00:07 | 30.12437 | -87.77720 | 271 ft | 130 kts | 340° |
| 2026-04-14 00:07 | 30.13051 | -87.78313 | 329 ft | 92 kts | 261° |
| 2026-04-14 00:08 | 30.12902 | -87.79033 | 250 ft | 97 kts | 239° |
| 2026-04-14 00:08 | 30.12525 | -87.79488 | 205 ft | 54 kts | 217° |
| 2026-04-14 00:08 | 30.12386 | -87.79661 | 201 ft | 11 kts | 231° |
| 2026-04-14 00:08 | 30.12390 | -87.79660 | 205 ft | 5 kts | 224° |
| 2026-04-14 00:09 | 30.12377 | -87.79708 | 113 ft | 16 kts | 241° |
| 2026-04-14 00:09 | 30.12461 | -87.79760 | 101 ft | 40 kts | 40° |
| 2026-04-14 00:09 | 30.12746 | -87.79673 | 125 ft | 26 kts | 201° |
| 2026-04-14 00:09 | 30.12786 | -87.79761 | 87 ft | 13 kts | 198° |
| 2026-04-14 00:10 | 30.12771 | -87.79800 | 83 ft | 3 kts | 205° |
| 2026-04-14 00:10 | 30.12751 | -87.79800 | 114 ft | 4 kts | 222° |
| 2026-04-14 00:10 | 30.12722 | -87.79863 | 118 ft | 12 kts | 224° |
| 2026-04-14 00:10 | 30.12668 | -87.79949 | 51 ft | 10 kts | 226° |
| 2026-04-14 00:11 | 30.12670 | -87.79998 | 38 ft | 8 kts | 236° |
| 2026-04-14 00:11 | 30.12600 | -87.80095 | 77 ft | 41 kts | 162° |
| 2026-04-14 00:11 | 30.12083 | -87.79584 | 103 ft | 140 kts | 135° |
| 2026-04-14 00:11 | 30.11342 | -87.78667 | 146 ft | 168 kts | 133° |
| 2026-04-14 00:12 | 30.10696 | -87.77824 | 593 ft | 100 kts | 132° |
| 2026-04-14 00:12 | 30.10244 | -87.77290 | 563 ft | 97 kts | 137° |
| 2026-04-14 00:12 | 30.09748 | -87.76617 | 848 ft | 112 kts | 127° |
| 2026-04-14 00:12 | 30.09266 | -87.75864 | 514 ft | 116 kts | 126° |
| 2026-04-14 00:13 | 30.08810 | -87.75167 | 395 ft | 115 kts | 127° |
| 2026-04-14 00:13 | 30.08356 | -87.74439 | 400 ft | 112 kts | 125° |
| 2026-04-14 00:13 | 30.07894 | -87.73716 | 394 ft | 111 kts | 125° |
| 2026-04-14 00:13 | 30.07456 | -87.73018 | 395 ft | 89 kts | 126° |
| 2026-04-14 00:14 | 30.07115 | -87.72543 | 348 ft | 66 kts | 131° |
| 2026-04-14 00:14 | 30.06835 | -87.72202 | 377 ft | 54 kts | 134° |
| 2026-04-14 00:14 | 30.06597 | -87.71901 | 391 ft | 47 kts | 136° |
| 2026-04-14 00:14 | 30.06395 | -87.71643 | 397 ft | 40 kts | 136° |
| 2026-04-14 00:15 | 30.06168 | -87.71392 | 266 ft | 49 kts | 140° |
| 2026-04-14 00:15 | 30.05898 | -87.71121 | 99 ft | 54 kts | 142° |
| 2026-04-14 00:15 | 30.05472 | -87.70680 | 112 ft | 134 kts | 139° |
| 2026-04-14 00:15 | 30.04719 | -87.69864 | 117 ft | 161 kts | 137° |
| 2026-04-14 00:16 | 30.03893 | -87.68938 | 170 ft | 160 kts | 137° |
| 2026-04-14 00:16 | 30.03142 | -87.68193 | 189 ft | 149 kts | 138° |
| 2026-04-14 00:16 | 30.02374 | -87.67408 | 283 ft | 149 kts | 139° |
| 2026-04-14 00:16 | 30.01549 | -87.66606 | 308 ft | 166 kts | 140° |
| 2026-04-14 00:17 | 30.00649 | -87.65684 | 251 ft | 177 kts | 137° |
| 2026-04-14 00:17 | 29.99755 | -87.64687 | 198 ft | 181 kts | 132° |
| 2026-04-14 00:17 | 29.99005 | -87.63546 | 221 ft | 177 kts | 126° |
| 2026-04-14 00:17 | 29.98311 | -87.62408 | 203 ft | 170 kts | 125° |
| 2026-04-14 00:18 | 29.97643 | -87.61299 | 155 ft | 170 kts | 126° |
| 2026-04-14 00:18 | 29.96920 | -87.61100 | 756 ft | 85 kts | 314° |
| 2026-04-14 00:18 | 29.97523 | -87.61018 | 818 ft | 117 kts | 29° |
| 2026-04-14 00:18 | 29.98303 | -87.60666 | 1141 ft | 126 kts | 27° |
| 2026-04-14 00:19 | 29.98982 | -87.60195 | 1286 ft | 79 kts | 142° |
| 2026-04-14 00:19 | 29.99102 | -87.59873 | 1209 ft | 25 kts | 176° |
| 2026-04-14 00:19 | 29.98937 | -87.59793 | 753 ft | 39 kts | 174° |
| 2026-04-14 00:19 | 29.98669 | -87.59931 | 350 ft | 47 kts | 213° |
| 2026-04-14 00:20 | 29.98408 | -87.60213 | 125 ft | 55 kts | 219° |
| 2026-04-14 00:20 | 29.98155 | -87.60585 | 85 ft | 51 kts | 306° |
| 2026-04-14 00:20 | 29.98126 | -87.60784 | 58 ft | 10 kts | 41° |
| 2026-04-14 00:20 | 29.98103 | -87.60803 | 46 ft | 5 kts | 62° |
| 2026-04-14 00:21 | 29.98103 | -87.60714 | 103 ft | 28 kts | 58° |
| 2026-04-14 00:21 | 29.98322 | -87.60789 | 124 ft | 48 kts | 326° |
| 2026-04-14 00:21 | 29.98562 | -87.61099 | 229 ft | 54 kts | 323° |
| 2026-04-14 00:21 | 29.98733 | -87.61246 | 205 ft | 4 kts | 325° |
| 2026-04-14 00:22 | 29.98733 | -87.61247 | 207 ft | 1 kts | 325° |
| 2026-04-14 00:22 | 29.98733 | -87.61248 | 202 ft | 0 kts | 325° |
| 2026-04-14 00:22 | 29.98733 | -87.61247 | 208 ft | 0 kts | 325° |
| 2026-04-14 00:22 | 29.98733 | -87.61246 | 208 ft | 1 kts | 325° |
| 2026-04-14 00:23 | 29.98734 | -87.61246 | 208 ft | 0 kts | 325° |
| 2026-04-14 00:23 | 29.98733 | -87.61246 | 201 ft | 1 kts | 325° |
| 2026-04-14 00:23 | 29.98733 | -87.61247 | 201 ft | 0 kts | 325° |
| 2026-04-14 00:24 | 29.98733 | -87.61246 | 203 ft | 1 kts | 325° |
| 2026-04-14 00:24 | 29.98734 | -87.61246 | 203 ft | 0 kts | 325° |
| 2026-04-14 00:25 | 29.98733 | -87.61246 | 203 ft | 1 kts | 325° |
| 2026-04-14 00:25 | 29.98733 | -87.61247 | 203 ft | 0 kts | 325° |
| 2026-04-14 00:25 | 29.98733 | -87.61246 | 203 ft | 1 kts | 325° |
| 2026-04-14 00:26 | 29.98734 | -87.61245 | 203 ft | 0 kts | 325° |
| 2026-04-14 00:26 | 29.98734 | -87.61246 | 203 ft | 1 kts | 325° |
| 2026-04-14 00:26 | 29.98733 | -87.61246 | 203 ft | 0 kts | 325° |
| 2026-04-14 00:27 | 29.98734 | -87.61245 | 203 ft | 1 kts | 325° |
| 2026-04-14 00:27 | 29.98734 | -87.61246 | 203 ft | 1 kts | 325° |
| 2026-04-14 00:28 | 29.98733 | -87.61246 | 203 ft | 0 kts | 325° |
| 2026-04-14 00:28 | 29.98734 | -87.61245 | 203 ft | 0 kts | 325° |
| 2026-04-14 00:29 | 29.98733 | -87.61246 | 203 ft | 0 kts | 325° |
| 2026-04-14 00:29 | 29.98734 | -87.61246 | 203 ft | 0 kts | 325° |
| 2026-04-14 00:29 | 29.98734 | -87.61245 | 203 ft | 0 kts | 325° |
| 2026-04-14 00:30 | 29.98734 | -87.61246 | 203 ft | 0 kts | 24° |
| 2026-04-14 00:30 | 29.98734 | -87.61245 | 203 ft | 1 kts | 24° |
| 2026-04-14 00:30 | 29.98734 | -87.61244 | 204 ft | 0 kts | 24° |
| 2026-04-14 00:31 | 29.98734 | -87.61245 | 203 ft | 0 kts | 24° |
| 2026-04-14 00:31 | 29.98734 | -87.61244 | 204 ft | 1 kts | 24° |
| 2026-04-14 00:32 | 29.98814 | -87.61159 | 170 ft | 54 kts | 60° |
| 2026-04-14 00:32 | 29.98862 | -87.60439 | 190 ft | 116 kts | 89° |
| 2026-04-14 00:32 | 29.98905 | -87.59412 | 190 ft | 140 kts | 90° |
| 2026-04-14 00:33 | 29.98967 | -87.58214 | 189 ft | 157 kts | 87° |
| 2026-04-14 00:33 | 29.99045 | -87.56974 | 170 ft | 156 kts | 89° |
| 2026-04-14 00:33 | 29.99114 | -87.55740 | 196 ft | 153 kts | 89° |
| 2026-04-14 00:33 | 29.99187 | -87.54507 | 197 ft | 156 kts | 89° |
| 2026-04-14 00:34 | 29.99255 | -87.53252 | 200 ft | 157 kts | 89° |
| 2026-04-14 00:34 | 29.99318 | -87.52010 | 204 ft | 155 kts | 89° |
| 2026-04-14 00:34 | 29.99380 | -87.50774 | 205 ft | 157 kts | 89° |
| 2026-04-14 00:34 | 29.99452 | -87.49530 | 203 ft | 154 kts | 89° |
| 2026-04-14 00:35 | 29.99524 | -87.48289 | 206 ft | 156 kts | 89° |
| 2026-04-14 00:35 | 29.99588 | -87.47049 | 204 ft | 155 kts | 89° |
| 2026-04-14 00:35 | 29.99658 | -87.45803 | 204 ft | 156 kts | 89° |
| 2026-04-14 00:35 | 29.99718 | -87.44562 | 204 ft | 155 kts | 89° |
| 2026-04-14 00:36 | 29.99788 | -87.43318 | 204 ft | 154 kts | 89° |
| 2026-04-14 00:36 | 29.99837 | -87.42502 | 205 ft | 153 kts | 89° |
| 2026-04-14 00:36 | 29.99919 | -87.41263 | 205 ft | 155 kts | 89° |
| 2026-04-14 00:36 | 29.99987 | -87.40036 | 209 ft | 155 kts | 89° |
| 2026-04-14 00:37 | 30.00069 | -87.38797 | 208 ft | 154 kts | 89° |
| 2026-04-14 00:37 | 30.00150 | -87.37553 | 204 ft | 157 kts | 89° |
| 2026-04-14 00:37 | 30.00256 | -87.35887 | 208 ft | 154 kts | 89° |
| 2026-04-14 00:37 | 30.00309 | -87.35070 | 205 ft | 156 kts | 89° |
| 2026-04-14 00:38 | 30.00384 | -87.33815 | 210 ft | 155 kts | 89° |
| 2026-04-14 00:38 | 30.00464 | -87.32571 | 208 ft | 157 kts | 89° |
| 2026-04-14 00:38 | 30.00541 | -87.31333 | 207 ft | 154 kts | 89° |
| 2026-04-14 00:38 | 30.00618 | -87.30083 | 206 ft | 157 kts | 89° |
| 2026-04-14 00:39 | 30.00596 | -87.28839 | 204 ft | 153 kts | 94° |
| 2026-04-14 00:39 | 30.00577 | -87.27593 | 206 ft | 157 kts | 94° |
| 2026-04-14 00:39 | 30.00551 | -87.26350 | 205 ft | 153 kts | 94° |
| 2026-04-14 00:39 | 30.00526 | -87.25118 | 207 ft | 153 kts | 94° |
| 2026-04-14 00:40 | 30.00508 | -87.23879 | 206 ft | 155 kts | 94° |
| 2026-04-14 00:40 | 30.00350 | -87.22652 | 208 ft | 155 kts | 105° |
| 2026-04-14 00:40 | 30.00078 | -87.21484 | 246 ft | 137 kts | 108° |
| 2026-04-14 00:40 | 29.99772 | -87.20583 | 329 ft | 109 kts | 116° |
| 2026-04-14 00:41 | 29.99930 | -87.19772 | 244 ft | 133 kts | 48° |
| 2026-04-14 00:41 | 30.00671 | -87.19073 | 278 ft | 139 kts | 44° |
| 2026-04-14 00:41 | 30.01443 | -87.18386 | 388 ft | 139 kts | 44° |
| 2026-04-14 00:41 | 30.02206 | -87.17665 | 453 ft | 142 kts | 44° |
| 2026-04-14 00:42 | 30.02991 | -87.16893 | 428 ft | 153 kts | 44° |
| 2026-04-14 00:42 | 30.03719 | -87.16016 | 403 ft | 146 kts | 61° |
| 2026-04-14 00:42 | 30.03529 | -87.15402 | 378 ft | 101 kts | 192° |
| 2026-04-14 00:42 | 30.02852 | -87.16108 | 250 ft | 149 kts | 224° |
| 2026-04-14 00:43 | 30.02094 | -87.17016 | 218 ft | 161 kts | 224° |
| 2026-04-14 00:43 | 30.01347 | -87.17940 | 366 ft | 151 kts | 223° |
| 2026-04-14 00:43 | 30.00614 | -87.18795 | 254 ft | 148 kts | 220° |
| 2026-04-14 00:43 | 29.99878 | -87.19491 | 268 ft | 114 kts | 185° |
| 2026-04-14 00:44 | 29.99511 | -87.19723 | 148 ft | 11 kts | 88° |
| 2026-04-14 00:44 | 29.99503 | -87.19707 | 164 ft | 0 kts | 80° |
| 2026-04-14 00:44 | 29.99474 | -87.19700 | 102 ft | 3 kts | 78° |
| 2026-04-14 00:44 | 29.99466 | -87.19697 | 93 ft | 0 kts | 73° |
| 2026-04-14 00:45 | 29.99465 | -87.19697 | 69 ft | 0 kts | 73° |
| 2026-04-14 00:45 | 29.99459 | -87.19694 | 59 ft | 1 kts | 73° |
| 2026-04-14 00:45 | 29.99452 | -87.19691 | 62 ft | 0 kts | 73° |
| 2026-04-14 00:46 | 29.99451 | -87.19691 | 41 ft | 0 kts | 73° |
| 2026-04-14 00:46 | 29.99492 | -87.19635 | 97 ft | 26 kts | 22° |
| 2026-04-14 00:46 | 29.99706 | -87.19736 | 193 ft | 53 kts | 269° |
| 2026-04-14 00:46 | 29.99461 | -87.19897 | 293 ft | 50 kts | 140° |
| 2026-04-14 00:47 | 29.99280 | -87.19380 | 337 ft | 90 kts | 97° |
| 2026-04-14 00:47 | 29.99505 | -87.18897 | 422 ft | 59 kts | 322° |
| 2026-04-14 00:47 | 29.99574 | -87.19306 | 192 ft | 54 kts | 252° |
| 2026-04-14 00:47 | 29.99496 | -87.19444 | 107 ft | 10 kts | 94° |
| 2026-04-14 00:48 | 29.99457 | -87.19418 | 106 ft | 4 kts | 96° |
| 2026-04-14 00:48 | 29.99474 | -87.19435 | 145 ft | 12 kts | 104° |
| 2026-04-14 00:48 | 29.99474 | -87.19560 | 216 ft | 14 kts | 66° |
| 2026-04-14 00:48 | 29.99462 | -87.19628 | 286 ft | 2 kts | 74° |
| 2026-04-14 00:49 | 29.99580 | -87.19591 | 365 ft | 33 kts | 72° |
| 2026-04-14 00:49 | 29.99670 | -87.19450 | 349 ft | 17 kts | 94° |
| 2026-04-14 00:49 | 29.99614 | -87.19373 | 249 ft | 7 kts | 103° |
| 2026-04-14 00:49 | 29.99613 | -87.19364 | 205 ft | 1 kts | 103° |
| 2026-04-14 00:50 | 29.99614 | -87.19364 | 206 ft | 0 kts | 103° |
| 2026-04-14 00:50 | 29.99613 | -87.19364 | 206 ft | 1 kts | 103° |
| 2026-04-14 00:50 | 29.99612 | -87.19364 | 206 ft | 0 kts | 103° |
| 2026-04-14 00:50 | 29.99599 | -87.19367 | 211 ft | 4 kts | 105° |
| 2026-04-14 00:51 | 29.99578 | -87.19374 | 211 ft | 1 kts | 105° |
| 2026-04-14 00:51 | 29.99572 | -87.19376 | 207 ft | 1 kts | 105° |
| 2026-04-14 00:51 | 29.99571 | -87.19376 | 207 ft | 0 kts | 105° |
| 2026-04-14 00:52 | 29.99570 | -87.19376 | 207 ft | 0 kts | 105° |
| 2026-04-14 00:52 | 29.99571 | -87.19375 | 207 ft | 0 kts | 105° |
| 2026-04-14 00:52 | 29.99570 | -87.19375 | 208 ft | 0 kts | 105° |
| 2026-04-14 00:53 | 29.99570 | -87.19374 | 208 ft | 0 kts | 105° |
| 2026-04-14 00:53 | 29.99570 | -87.19373 | 204 ft | 0 kts | 105° |
| 2026-04-14 00:54 | 29.99569 | -87.19373 | 204 ft | 0 kts | 105° |
| 2026-04-14 00:54 | 29.99570 | -87.19367 | 208 ft | 5 kts | 112° |
| 2026-04-14 00:54 | 29.99486 | -87.19429 | 142 ft | 14 kts | 112° |
| 2026-04-14 00:55 | 29.99447 | -87.19416 | 90 ft | 1 kts | 91° |
| 2026-04-14 00:55 | 29.99509 | -87.19359 | 159 ft | 38 kts | 97° |
| 2026-04-14 00:55 | 29.99557 | -87.18790 | 688 ft | 82 kts | 62° |
| 2026-04-14 00:55 | 29.99941 | -87.18546 | 1515 ft | 52 kts | 270° |
| 2026-04-14 00:56 | 30.00162 | -87.18690 | 1644 ft | 16 kts | 196° |
| 2026-04-14 00:56 | 29.99891 | -87.18758 | 1363 ft | 57 kts | 183° |
| 2026-04-14 00:56 | 29.99435 | -87.18814 | 1103 ft | 74 kts | 193° |
| 2026-04-14 00:56 | 29.98982 | -87.19034 | 740 ft | 51 kts | 275° |
| 2026-04-14 00:57 | 29.98976 | -87.19253 | 368 ft | 22 kts | 342° |
| 2026-04-14 00:57 | 29.99103 | -87.19328 | 203 ft | 19 kts | 324° |
| 2026-04-14 00:57 | 29.99198 | -87.19385 | 158 ft | 13 kts | 330° |
| 2026-04-14 00:57 | 29.99237 | -87.19451 | 133 ft | 4 kts | 350° |
| 2026-04-14 00:58 | 29.99261 | -87.19436 | 118 ft | 6 kts | 358° |
| 2026-04-14 00:58 | 29.99304 | -87.19418 | 118 ft | 1 kts | 330° |
| 2026-04-14 00:58 | 29.99309 | -87.19415 | 105 ft | 1 kts | 325° |
| 2026-04-14 00:58 | 29.99316 | -87.19417 | 90 ft | 3 kts | 327° |
| 2026-04-14 00:59 | 29.99321 | -87.19454 | 107 ft | 12 kts | 306° |
| 2026-04-14 00:59 | 29.99311 | -87.19546 | 119 ft | 9 kts | 337° |
| 2026-04-14 00:59 | 29.99362 | -87.19593 | 142 ft | 16 kts | 18° |
| 2026-04-14 00:59 | 29.99407 | -87.19555 | 157 ft | 19 kts | 91° |
| 2026-04-14 01:00 | 29.99431 | -87.19298 | 202 ft | 40 kts | 115° |
| 2026-04-14 01:00 | 29.99294 | -87.19360 | 219 ft | 38 kts | 271° |
| 2026-04-14 01:00 | 29.99304 | -87.19478 | 133 ft | 10 kts | 75° |
| 2026-04-14 01:00 | 29.99267 | -87.19399 | 172 ft | 14 kts | 95° |
| 2026-04-14 01:01 | 29.99284 | -87.19371 | 177 ft | 8 kts | 309° |
| 2026-04-14 01:01 | 29.99318 | -87.19446 | 143 ft | 14 kts | 299° |
| 2026-04-14 01:01 | 29.99336 | -87.19469 | 121 ft | 4 kts | 334° |
| 2026-04-14 01:01 | 29.99327 | -87.19421 | 118 ft | 16 kts | 86° |
| 2026-04-14 01:02 | 29.99418 | -87.19025 | 252 ft | 90 kts | 52° |
| 2026-04-14 01:02 | 30.00036 | -87.18517 | 450 ft | 120 kts | 12° |
| 2026-04-14 01:02 | 30.00899 | -87.18209 | 952 ft | 137 kts | 358° |
| 2026-04-14 01:02 | 30.01806 | -87.17913 | 994 ft | 143 kts | 9° |
| 2026-04-14 01:03 | 30.02691 | -87.17599 | 991 ft | 127 kts | 10° |
| 2026-04-14 01:03 | 30.03592 | -87.17741 | 989 ft | 137 kts | 355° |
| 2026-04-14 01:03 | 30.04518 | -87.17880 | 988 ft | 134 kts | 355° |
| 2026-04-14 01:03 | 30.05455 | -87.18014 | 994 ft | 135 kts | 355° |
| 2026-04-14 01:04 | 30.06376 | -87.18167 | 992 ft | 138 kts | 355° |
| 2026-04-14 01:04 | 30.07313 | -87.18320 | 990 ft | 136 kts | 355° |
| 2026-04-14 01:04 | 30.08243 | -87.18471 | 991 ft | 135 kts | 355° |
| 2026-04-14 01:04 | 30.09175 | -87.18600 | 990 ft | 134 kts | 355° |
| 2026-04-14 01:05 | 30.10099 | -87.18723 | 991 ft | 135 kts | 355° |
| 2026-04-14 01:05 | 30.11037 | -87.18851 | 990 ft | 135 kts | 355° |
| 2026-04-14 01:05 | 30.11975 | -87.18984 | 989 ft | 137 kts | 355° |
| 2026-04-14 01:05 | 30.12906 | -87.19117 | 988 ft | 133 kts | 355° |
| 2026-04-14 01:06 | 30.13834 | -87.19244 | 989 ft | 134 kts | 355° |
| 2026-04-14 01:06 | 30.14780 | -87.19223 | 992 ft | 139 kts | 13° |
| 2026-04-14 01:06 | 30.15691 | -87.18957 | 992 ft | 132 kts | 17° |
| 2026-04-14 01:06 | 30.16597 | -87.18704 | 999 ft | 132 kts | 17° |
| 2026-04-14 01:07 | 30.17498 | -87.18448 | 996 ft | 133 kts | 17° |
| 2026-04-14 01:07 | 30.18400 | -87.18185 | 996 ft | 134 kts | 17° |
| 2026-04-14 01:07 | 30.19308 | -87.17929 | 994 ft | 135 kts | 17° |
| 2026-04-14 01:07 | 30.20207 | -87.17677 | 996 ft | 135 kts | 17° |
| 2026-04-14 01:08 | 30.21100 | -87.17426 | 1000 ft | 135 kts | 17° |
| 2026-04-14 01:08 | 30.22000 | -87.17171 | 1000 ft | 133 kts | 17° |
| 2026-04-14 01:08 | 30.22911 | -87.16916 | 1000 ft | 134 kts | 17° |
| 2026-04-14 01:08 | 30.23817 | -87.16663 | 999 ft | 135 kts | 17° |
| 2026-04-14 01:09 | 30.24721 | -87.16412 | 997 ft | 135 kts | 17° |
| 2026-04-14 01:09 | 30.25627 | -87.16149 | 1000 ft | 135 kts | 17° |
| 2026-04-14 01:09 | 30.26539 | -87.15884 | 1000 ft | 133 kts | 17° |
| 2026-04-14 01:09 | 30.27450 | -87.15620 | 997 ft | 136 kts | 17° |
| 2026-04-14 01:10 | 30.28346 | -87.15361 | 999 ft | 134 kts | 17° |
| 2026-04-14 01:10 | 30.29242 | -87.15093 | 1001 ft | 132 kts | 17° |
| 2026-04-14 01:10 | 30.30144 | -87.14828 | 998 ft | 130 kts | 17° |
| 2026-04-14 01:10 | 30.31037 | -87.14559 | 998 ft | 133 kts | 17° |
| 2026-04-14 01:11 | 30.31932 | -87.14298 | 996 ft | 132 kts | 17° |
| 2026-04-14 01:11 | 30.32827 | -87.14041 | 995 ft | 136 kts | 17° |
| 2026-04-14 01:11 | 30.33712 | -87.13791 | 996 ft | 135 kts | 17° |
| 2026-04-14 01:11 | 30.34616 | -87.13539 | 1001 ft | 132 kts | 17° |
| 2026-04-14 01:12 | 30.35525 | -87.13292 | 1004 ft | 132 kts | 17° |
| 2026-04-14 01:12 | 30.36428 | -87.13027 | 998 ft | 136 kts | 17° |
| 2026-04-14 01:12 | 30.37322 | -87.12691 | 1007 ft | 133 kts | 21° |
| 2026-04-14 01:12 | 30.38208 | -87.12328 | 1001 ft | 134 kts | 21° |
| 2026-04-14 01:13 | 30.39102 | -87.12012 | 1000 ft | 134 kts | 20° |
| 2026-04-14 01:13 | 30.39988 | -87.11679 | 998 ft | 136 kts | 20° |
| 2026-04-14 01:13 | 30.40873 | -87.11345 | 998 ft | 136 kts | 20° |
| 2026-04-14 01:13 | 30.41770 | -87.11009 | 998 ft | 136 kts | 20° |
| 2026-04-14 01:14 | 30.42666 | -87.10684 | 999 ft | 135 kts | 20° |
| 2026-04-14 01:14 | 30.43562 | -87.10359 | 999 ft | 134 kts | 20° |
| 2026-04-14 01:14 | 30.44451 | -87.10039 | 999 ft | 134 kts | 20° |
| 2026-04-14 01:14 | 30.45346 | -87.09708 | 1001 ft | 134 kts | 20° |
| 2026-04-14 01:15 | 30.46241 | -87.09376 | 1001 ft | 135 kts | 20° |
| 2026-04-14 01:15 | 30.47133 | -87.09042 | 999 ft | 134 kts | 20° |
| 2026-04-14 01:15 | 30.48018 | -87.08705 | 1001 ft | 133 kts | 20° |
| 2026-04-14 01:15 | 30.48906 | -87.08367 | 1000 ft | 135 kts | 19° |
| 2026-04-14 01:16 | 30.49813 | -87.08084 | 999 ft | 134 kts | 17° |
| 2026-04-14 01:16 | 30.50720 | -87.07818 | 999 ft | 133 kts | 17° |
| 2026-04-14 01:16 | 30.51622 | -87.07559 | 1009 ft | 135 kts | 17° |
| 2026-04-14 01:16 | 30.52537 | -87.07300 | 1004 ft | 137 kts | 17° |
| 2026-04-14 01:18 | 30.58958 | -87.05443 | 998 ft | 136 kts | 17° |
| 2026-04-14 01:18 | 30.59862 | -87.05164 | 993 ft | 135 kts | 17° |
| 2026-04-14 01:19 | 30.60762 | -87.04890 | 995 ft | 134 kts | 17° |
| 2026-04-14 01:19 | 30.61662 | -87.04612 | 997 ft | 133 kts | 17° |
| 2026-04-14 01:19 | 30.62549 | -87.04342 | 998 ft | 133 kts | 17° |
| 2026-04-14 01:19 | 30.63448 | -87.04069 | 1001 ft | 131 kts | 17° |
| 2026-04-14 01:20 | 30.64364 | -87.03797 | 1000 ft | 134 kts | 17° |
| 2026-04-14 01:20 | 30.65274 | -87.03535 | 998 ft | 136 kts | 17° |
| 2026-04-14 01:20 | 30.66182 | -87.03275 | 997 ft | 134 kts | 17° |
| 2026-04-14 01:20 | 30.67085 | -87.03019 | 990 ft | 132 kts | 15° |
| 2026-04-14 01:21 | 30.67911 | -87.02749 | 788 ft | 116 kts | 18° |
| 2026-04-14 01:21 | 30.68647 | -87.02452 | 686 ft | 105 kts | 13° |
| 2026-04-14 01:21 | 30.69262 | -87.02151 | 550 ft | 84 kts | 16° |
| 2026-04-14 01:21 | 30.69693 | -87.01897 | 433 ft | 58 kts | 20° |
| 2026-04-14 01:22 | 30.69977 | -87.01738 | 288 ft | 28 kts | 2° |
| 2026-04-14 01:22 | 30.70051 | -87.01698 | 196 ft | 4 kts | 358° |
| 2026-04-14 01:22 | 30.70070 | -87.01695 | 192 ft | 1 kts | 13° |
| 2026-04-14 01:22 | 30.70073 | -87.01694 | 176 ft | 0 kts | 12° |